Time;durP1;ratioP1;P1;durP2;ratioP2;P2;SDS_P1;SDS_P2;PMS_P1;PMS_P2;Temp;Humidity;BMP_temperature;BMP_pressure;BME280_temperature;BME280_humidity;BME280_pressure;Samples;Min_cycle;Max_cycle;Signal;HPM_P1;HPM_P2
2022/04/28 00:00:57;;;;;;;10.77;4.45;;;11.70;54.20;;;;;;5054713;28;20060;-63
2022/04/28 00:03:22;;;;;;;10.68;4.57;;;11.70;54.30;;;;;;5050283;28;20048;-63
2022/04/28 00:05:48;;;;;;;10.27;4.45;;;11.70;54.30;;;;;;5035063;28;20037;-62
2022/04/28 00:08:14;;;;;;;8.43;4.28;;;11.70;54.30;;;;;;5035747;28;20408;-63
2022/04/28 00:10:40;;;;;;;9.55;4.25;;;11.60;54.30;;;;;;5035715;28;20037;-62
2022/04/28 00:13:08;;;;;;;11.90;4.75;;;11.60;54.40;;;;;;5045713;28;20377;-62
2022/04/28 00:15:33;;;;;;;13.68;4.75;;;11.60;54.40;;;;;;5043820;28;20522;-62
2022/04/28 00:17:59;;;;;;;9.00;4.30;;;11.60;54.40;;;;;;5035256;28;20171;-62
2022/04/28 00:20:25;;;;;;;10.85;4.47;;;11.60;54.50;;;;;;5035242;28;20087;-62
2022/04/28 00:22:51;;;;;;;11.27;4.95;;;11.50;54.60;;;;;;5051298;28;20106;-62
2022/04/28 00:25:17;;;;;;;12.07;4.93;;;11.50;54.60;;;;;;5038494;28;20024;-62
2022/04/28 00:27:42;;;;;;;9.57;4.45;;;11.50;54.70;;;;;;5055009;28;20029;-62
2022/04/28 00:30:08;;;;;;;12.32;4.70;;;11.50;54.70;;;;;;5034650;28;20473;-62
2022/04/28 00:32:35;;;;;;;11.00;4.85;;;11.50;54.70;;;;;;5035423;28;20048;-62
2022/04/28 00:35:01;;;;;;;9.75;4.47;;;11.40;54.70;;;;;;5035536;28;20037;-62
2022/04/28 00:37:26;;;;;;;12.93;5.50;;;11.50;54.80;;;;;;5053625;28;20104;-62
2022/04/28 00:39:53;;;;;;;10.60;4.20;;;11.40;54.90;;;;;;5037099;28;20355;-62
2022/04/28 00:42:20;;;;;;;12.10;5.03;;;11.40;54.90;;;;;;5036065;28;20032;-62
2022/04/28 00:44:46;;;;;;;10.60;4.88;;;11.40;55.00;;;;;;5035531;28;20073;-62
2022/04/28 00:47:13;;;;;;;10.30;4.82;;;11.40;55.10;;;;;;5050477;28;20033;-62
2022/04/28 00:52:24;;;;;;;12.70;5.32;;;11.30;55.20;;;;;;5034117;28;20120;-62
2022/04/28 00:54:54;;;;;;;9.73;4.57;;;11.30;55.20;;;;;;5052220;28;20405;-62
2022/04/28 00:57:22;;;;;;;11.07;5.43;;;11.30;55.30;;;;;;5034048;28;20466;-63
2022/04/28 00:59:49;;;;;;;10.57;4.63;;;11.30;55.40;;;;;;5050673;28;20052;-62
2022/04/28 01:02:18;;;;;;;12.18;4.85;;;11.20;55.40;;;;;;5050907;28;20108;-63
2022/04/28 01:04:44;;;;;;;10.40;5.10;;;11.20;55.50;;;;;;5042257;28;20025;-62
2022/04/28 01:07:11;;;;;;;8.88;4.38;;;11.10;55.60;;;;;;5049465;28;20036;-63
2022/04/28 01:09:37;;;;;;;10.48;4.80;;;11.10;55.70;;;;;;5037297;28;20025;-62
2022/04/28 01:12:10;;;;;;;9.77;4.97;;;11.10;55.70;;;;;;5036507;28;20037;-62
2022/04/28 01:14:36;;;;;;;10.80;5.30;;;11.10;55.80;;;;;;5054211;28;20111;-62
2022/04/28 01:17:03;;;;;;;10.52;4.95;;;11.10;55.90;;;;;;5051596;28;20458;-62
2022/04/28 01:19:29;;;;;;;10.13;4.88;;;11.00;55.90;;;;;;5047061;28;20028;-63
2022/04/28 01:21:56;;;;;;;10.70;5.03;;;11.00;55.90;;;;;;5052364;28;20415;-62
2022/04/28 01:24:22;;;;;;;11.93;5.40;;;11.00;56.00;;;;;;5054336;28;20052;-62
2022/04/28 01:26:51;;;;;;;10.75;5.30;;;11.00;56.10;;;;;;5047116;28;20033;-62
2022/04/28 01:29:18;;;;;;;11.50;4.88;;;11.00;56.10;;;;;;5045657;28;20033;-62
2022/04/28 01:31:44;;;;;;;12.23;5.28;;;10.90;56.10;;;;;;5042690;28;20025;-62
2022/04/28 01:34:10;;;;;;;10.52;4.78;;;10.90;56.20;;;;;;5036651;28;20061;-62
2022/04/28 01:36:36;;;;;;;11.10;5.05;;;10.90;56.30;;;;;;5051230;28;20033;-62
2022/04/28 01:39:06;;;;;;;11.10;5.20;;;10.90;56.30;;;;;;5049499;28;20033;-62
2022/04/28 01:41:31;;;;;;;11.10;5.68;;;10.90;56.40;;;;;;5039798;28;20146;-62
2022/04/28 01:43:57;;;;;;;10.60;5.05;;;10.90;56.40;;;;;;5033470;28;20056;-62
2022/04/28 01:46:23;;;;;;;12.40;5.25;;;10.90;56.50;;;;;;5038786;28;20109;-62
2022/04/28 01:49:07;;;;;;;11.45;5.38;;;10.90;56.50;;;;;;5049272;28;20036;-62
2022/04/28 01:54:59;;;;;;;13.20;5.53;;;10.80;57.20;;;;;;5065359;28;20033;-62
2022/04/28 01:57:43;;;;;;;11.45;5.07;;;10.70;56.60;;;;;;5049693;28;20021;-62
2022/04/28 02:00:39;;;;;;;12.75;5.53;;;10.70;56.70;;;;;;5069299;28;20134;-62
2022/04/28 02:03:09;;;;;;;13.05;5.35;;;10.70;56.90;;;;;;5071096;28;20028;-62
2022/04/28 02:05:35;;;;;;;11.80;5.05;;;10.70;56.90;;;;;;5072794;28;20350;-62
2022/04/28 02:08:03;;;;;;;11.10;5.45;;;10.70;57.00;;;;;;5038919;28;20124;-62
2022/04/28 02:10:28;;;;;;;11.52;6.45;;;10.60;57.10;;;;;;5055675;28;20113;-62
2022/04/28 02:12:56;;;;;;;12.00;5.07;;;10.70;57.20;;;;;;5072108;28;20040;-62
2022/04/28 02:15:40;;;;;;;15.23;6.43;;;10.60;57.20;;;;;;5072518;28;20428;-62
2022/04/28 02:18:24;;;;;;;12.02;4.90;;;10.60;57.30;;;;;;5078850;28;20132;-62
2022/04/28 02:20:50;;;;;;;10.45;5.10;;;10.60;57.40;;;;;;5071623;28;20119;-63
2022/04/28 02:23:16;;;;;;;11.48;5.20;;;10.60;57.50;;;;;;5071504;28;20035;-62
2022/04/28 02:25:41;;;;;;;9.00;4.82;;;10.60;57.50;;;;;;5072433;28;20024;-62
2022/04/28 02:28:08;;;;;;;11.90;6.18;;;10.50;57.50;;;;;;5071085;28;20028;-62
2022/04/28 02:30:34;;;;;;;11.05;6.03;;;10.50;57.60;;;;;;5044421;28;20372;-62
2022/04/28 02:33:08;;;;;;;14.65;6.25;;;10.50;57.70;;;;;;5055420;28;20074;-63
2022/04/28 02:35:53;;;;;;;11.70;5.30;;;10.50;57.70;;;;;;5071265;28;20197;-63
2022/04/28 02:38:18;;;;;;;12.27;5.53;;;10.50;57.90;;;;;;5041597;28;20056;-62
2022/04/28 02:40:45;;;;;;;11.43;5.47;;;10.40;57.90;;;;;;5053584;28;20053;-62
2022/04/28 02:43:11;;;;;;;13.35;6.03;;;10.40;58.00;;;;;;5043332;28;20111;-62
2022/04/28 02:45:36;;;;;;;9.05;4.65;;;10.40;58.00;;;;;;5057618;28;20040;-62
2022/04/28 02:48:02;;;;;;;13.73;5.80;;;10.40;58.10;;;;;;5052245;28;20399;-62
2022/04/28 02:50:28;;;;;;;13.60;5.65;;;10.30;58.10;;;;;;5037856;28;20040;-62
2022/04/28 02:52:54;;;;;;;13.77;6.07;;;10.30;58.20;;;;;;5036292;28;20033;-62
2022/04/28 02:55:20;;;;;;;11.23;5.38;;;10.30;58.20;;;;;;5036725;28;20021;-63
2022/04/28 02:57:46;;;;;;;11.48;5.60;;;10.30;58.30;;;;;;5036393;28;20056;-62
2022/04/28 03:00:14;;;;;;;10.52;5.93;;;10.30;58.30;;;;;;5037541;28;20039;-62
2022/04/28 03:02:56;;;;;;;11.45;5.63;;;10.30;58.30;;;;;;5036160;28;20080;-62
2022/04/28 03:05:22;;;;;;;10.68;5.30;;;10.30;58.40;;;;;;5054319;28;20025;-62
2022/04/28 03:10:49;;;;;;;18.27;8.07;;;10.20;58.40;;;;;;5053213;28;20041;-62
2022/04/28 03:13:17;;;;;;;13.73;6.55;;;10.20;58.50;;;;;;5036013;28;20025;-62
2022/04/28 03:15:46;;;;;;;13.30;6.32;;;10.20;58.50;;;;;;5052508;28;20053;-62
2022/04/28 03:18:15;;;;;;;9.70;5.53;;;10.10;58.50;;;;;;5060704;28;20076;-62
2022/04/28 03:20:41;;;;;;;12.75;4.82;;;10.10;58.60;;;;;;5036850;28;20109;-63
2022/04/28 03:23:07;;;;;;;14.50;5.88;;;10.10;58.60;;;;;;5035424;28;20034;-62
2022/04/28 03:25:33;;;;;;;10.52;5.32;;;10.10;58.70;;;;;;5036552;28;20037;-62
2022/04/28 03:27:59;;;;;;;12.45;5.07;;;10.10;58.70;;;;;;5035654;28;20027;-62
2022/04/28 03:30:25;;;;;;;11.65;5.45;;;10.10;58.80;;;;;;5037748;28;20037;-62
2022/04/28 03:33:10;;;;;;;10.43;5.05;;;10.10;58.90;;;;;;5035748;28;20425;-62
2022/04/28 03:35:36;;;;;;;11.48;5.15;;;10.00;58.90;;;;;;5052347;28;20025;-62
2022/04/28 03:38:02;;;;;;;9.45;4.88;;;10.00;59.00;;;;;;5040983;28;20453;-63
2022/04/28 03:40:29;;;;;;;10.73;5.10;;;10.00;59.00;;;;;;5036707;28;20029;-62
2022/04/28 03:42:57;;;;;;;10.68;4.65;;;10.00;59.00;;;;;;5049379;28;20033;-62
2022/04/28 03:45:24;;;;;;;11.07;4.03;;;10.00;59.00;;;;;;5038192;28;20127;-62
2022/04/28 03:47:51;;;;;;;12.20;5.28;;;10.00;58.90;;;;;;5053067;28;20033;-62
2022/04/28 03:50:17;;;;;;;10.70;5.13;;;10.00;58.90;;;;;;5037656;28;20072;-62
2022/04/28 03:52:43;;;;;;;12.07;5.07;;;10.10;58.90;;;;;;5035349;28;20477;-62
2022/04/28 03:55:10;;;;;;;11.45;5.00;;;10.00;58.90;;;;;;5049749;28;20032;-62
2022/04/28 03:57:36;;;;;;;9.30;4.30;;;10.00;58.90;;;;;;5052394;28;20017;-62
2022/04/28 04:00:06;;;;;;;12.75;4.78;;;10.00;58.90;;;;;;5034969;28;20107;-62
2022/04/28 04:02:32;;;;;;;12.25;4.72;;;10.00;58.90;;;;;;5036965;28;20084;-62
2022/04/28 04:04:59;;;;;;;9.07;4.38;;;10.00;58.90;;;;;;5051309;28;20032;-62
2022/04/28 04:07:32;;;;;;;10.15;4.50;;;10.00;58.90;;;;;;5034550;28;20029;-62
2022/04/28 04:10:13;;;;;;;9.73;4.18;;;10.00;59.00;;;;;;5052571;28;20053;-62
2022/04/28 04:12:42;;;;;;;10.35;4.50;;;10.00;58.90;;;;;;5051194;28;21033;-62
2022/04/28 04:15:11;;;;;;;9.10;4.00;;;10.00;58.90;;;;;;5057505;28;20107;-63
2022/04/28 04:17:52;;;;;;;;;;;10.00;58.90;;;;;;5058766;28;20323;-62
2022/04/28 04:20:21;;;;;;;6.88;3.50;;;10.00;58.80;;;;;;5061531;28;19908;-62
2022/04/28 04:22:47;;;;;;;8.93;3.97;;;9.90;58.80;;;;;;5057894;28;20025;-62
2022/04/28 04:25:13;;;;;;;10.77;4.32;;;9.90;58.80;;;;;;5059332;28;20039;-62
2022/04/28 04:27:39;;;;;;;10.57;4.80;;;9.90;58.80;;;;;;5059064;28;20044;-62
2022/04/28 04:33:15;;;;;;;11.90;4.65;;;9.90;58.90;;;;;;5055541;28;20140;-62
2022/04/28 04:35:40;;;;;;;13.95;5.57;;;9.90;58.90;;;;;;5067287;28;20120;-62
2022/04/28 04:38:06;;;;;;;13.05;6.07;;;9.90;59.00;;;;;;5062216;28;20024;-62
2022/04/28 04:40:32;;;;;;;10.15;5.32;;;9.90;59.10;;;;;;5068819;28;20022;-62
2022/04/28 04:43:00;;;;;;;12.07;5.45;;;9.90;59.10;;;;;;5050991;28;20022;-62
2022/04/28 04:45:26;;;;;;;11.32;5.57;;;9.90;59.10;;;;;;5053750;28;20034;-63
2022/04/28 04:48:08;;;;;;;;;;;9.90;59.20;;;;;;5054506;28;20033;-62
2022/04/28 04:50:41;;;;;;;8.80;4.20;;;9.90;59.10;;;;;;5065489;28;19917;-62
2022/04/28 04:53:15;;;;;;;13.93;4.68;;;9.90;59.10;;;;;;5072708;28;20057;-62
2022/04/28 04:55:42;;;;;;;12.20;5.07;;;9.90;59.20;;;;;;5053644;28;20037;-62
2022/04/28 04:58:08;;;;;;;13.10;5.05;;;10.00;59.30;;;;;;5051805;28;20364;-62
2022/04/28 05:00:33;;;;;;;11.77;5.28;;;10.00;59.30;;;;;;5053485;28;20018;-62
2022/04/28 05:03:17;;;;;;;13.32;5.30;;;10.00;59.40;;;;;;5055394;28;20369;-62
2022/04/28 05:05:55;;;;;;;10.85;4.80;;;10.00;59.40;;;;;;5046625;28;20036;-63
2022/04/28 05:08:28;;;;;;;10.10;4.82;;;10.00;59.40;;;;;;5053527;28;20037;-63
2022/04/28 05:10:59;;;;;;;10.98;5.35;;;10.00;59.50;;;;;;5048531;28;20029;-63
2022/04/28 05:13:24;;;;;;;16.85;6.32;;;10.10;59.50;;;;;;5051700;28;20036;-63
2022/04/28 05:15:53;;;;;;;14.18;5.78;;;10.10;59.50;;;;;;5046559;28;20101;-62
2022/04/28 05:18:31;;;;;;;13.57;5.93;;;10.10;59.40;;;;;;5051233;28;20032;-62
2022/04/28 05:21:18;;;;;;;12.93;5.63;;;10.20;59.30;;;;;;5046511;28;20032;-62
2022/04/28 05:24:03;;;;;;;13.73;5.35;;;10.20;59.20;;;;;;5055256;28;20463;-62
2022/04/28 05:26:44;;;;;;;16.60;6.05;;;10.30;59.10;;;;;;5053818;28;20033;-62
2022/04/28 05:29:40;;;;;;;11.93;4.90;;;10.40;59.00;;;;;;5033718;28;20021;-62
2022/04/28 05:32:17;;;;;;;8.52;4.35;;;10.60;58.60;;;;;;5050393;28;20458;-62
2022/04/28 05:34:51;;;;;;;10.45;4.75;;;10.70;58.20;;;;;;5053562;28;20037;-62
2022/04/28 05:37:20;;;;;;;15.50;5.45;;;10.80;58.00;;;;;;5053201;28;20025;-62
2022/04/28 05:39:47;;;;;;;13.57;5.57;;;11.10;57.70;;;;;;5052436;28;20037;-62
2022/04/28 05:42:13;;;;;;;10.50;4.40;;;11.50;57.10;;;;;;5045945;28;20017;-62
2022/04/28 05:47:24;;;;;;;10.45;3.70;;;12.30;55.50;;;;;;5053173;28;20354;-62
2022/04/28 05:49:51;;;;;;;8.95;3.75;;;12.40;55.00;;;;;;5048720;28;20099;-62
2022/04/28 05:52:16;;;;;;;7.95;3.65;;;13.00;54.40;;;;;;5053145;28;20112;-62
2022/04/28 05:54:42;;;;;;;11.75;3.72;;;13.80;53.00;;;;;;5053424;28;20414;-62
2022/04/28 05:57:08;;;;;;;12.27;3.80;;;14.80;51.20;;;;;;5053398;28;20025;-62
2022/04/28 05:59:34;;;;;;;11.05;3.40;;;15.70;49.50;;;;;;5052767;28;20025;-62
2022/04/28 06:02:18;;;;;;;8.02;2.95;;;16.40;48.00;;;;;;5053078;28;20044;-63
2022/04/28 06:04:44;;;;;;;10.60;3.03;;;16.80;47.20;;;;;;5044521;28;20029;-62
2022/04/28 06:07:10;;;;;;;9.65;3.30;;;16.70;47.00;;;;;;5053176;28;20035;-62
2022/04/28 06:09:40;;;;;;;10.00;3.70;;;16.50;47.40;;;;;;5033821;28;20439;-63
2022/04/28 06:12:06;;;;;;;8.00;3.10;;;16.10;47.90;;;;;;5065213;28;20086;-63
2022/04/28 06:14:54;;;;;;;8.48;3.00;;;15.70;48.20;;;;;;5026364;28;20060;-63
2022/04/28 06:17:54;;;;;;;10.07;3.15;;;15.40;48.70;;;;;;5058558;28;20036;-63
2022/04/28 06:20:20;;;;;;;11.93;3.15;;;15.20;48.80;;;;;;5036813;28;20021;-63
2022/04/28 06:22:59;;;;;;;7.53;2.88;;;15.10;49.00;;;;;;5037124;28;20033;-63
2022/04/28 06:25:26;;;;;;;8.85;3.13;;;15.00;49.10;;;;;;5037475;28;20359;-62
2022/04/28 06:27:52;;;;;;;7.00;2.28;;;15.00;49.10;;;;;;5054924;28;20071;-63
2022/04/28 06:30:18;;;;;;;6.25;2.70;;;15.00;48.90;;;;;;5052617;28;20029;-63
2022/04/28 06:32:44;;;;;;;7.28;2.75;;;15.00;48.70;;;;;;5056117;28;20049;-62
2022/04/28 06:35:20;;;;;;;6.97;2.70;;;15.00;48.50;;;;;;5048079;28;20466;-63
2022/04/28 06:37:47;;;;;;;7.60;2.50;;;15.10;48.30;;;;;;5036317;28;20184;-62
2022/04/28 06:40:13;;;;;;;8.27;2.58;;;15.20;48.20;;;;;;5055602;28;20013;-62
2022/04/28 06:42:44;;;;;;;7.85;2.22;;;15.30;47.90;;;;;;5050066;28;20319;-62
2022/04/28 06:45:29;;;;;;;8.20;2.47;;;15.40;47.70;;;;;;5041078;28;20378;-62
2022/04/28 06:48:33;;;;;;;8.57;2.47;;;15.50;47.50;;;;;;5051212;28;20034;-63
2022/04/28 06:51:31;;;;;;;8.27;2.55;;;15.70;47.20;;;;;;5056443;28;20047;-61
2022/04/28 06:54:30;;;;;;;6.50;2.60;;;15.80;46.90;;;;;;5038465;28;20040;-62
2022/04/28 06:56:55;;;;;;;5.90;2.38;;;15.90;46.60;;;;;;5042116;28;20037;-63
2022/04/28 06:59:21;;;;;;;7.32;2.28;;;16.00;46.40;;;;;;5032362;28;20102;-62
2022/04/28 07:01:48;;;;;;;10.25;2.60;;;16.10;46.20;;;;;;5038025;28;20021;-62
2022/04/28 07:04:14;;;;;;;6.30;2.42;;;16.20;46.00;;;;;;5024584;28;20040;-62
2022/04/28 07:06:40;;;;;;;7.13;2.28;;;16.30;45.90;;;;;;5046139;28;20034;-62
2022/04/28 07:09:06;;;;;;;7.78;2.00;;;16.40;45.50;;;;;;5031703;28;21328;-62
2022/04/28 07:11:32;;;;;;;8.52;2.22;;;16.40;45.40;;;;;;5050877;28;20473;-63
2022/04/28 07:14:16;;;;;;;8.07;2.33;;;16.40;45.30;;;;;;5050696;28;20056;-62
2022/04/28 07:17:01;;;;;;;7.43;2.22;;;16.50;45.10;;;;;;5038034;28;20106;-63
2022/04/28 07:19:34;;;;;;;9.60;2.33;;;16.60;45.70;;;;;;5035612;28;20083;-63
2022/04/28 07:22:02;;;;;;;8.00;2.40;;;16.70;44.90;;;;;;5045689;28;20026;-62
2022/04/28 07:24:29;;;;;;;6.90;2.30;;;16.80;44.70;;;;;;5047861;28;20029;-63
2022/04/28 07:26:55;;;;;;;6.47;1.75;;;16.90;44.50;;;;;;5032206;28;20045;-63
2022/04/28 07:29:21;;;;;;;9.05;2.70;;;17.00;44.90;;;;;;5032315;28;20096;-63
2022/04/28 07:32:07;;;;;;;7.45;2.30;;;17.10;44.20;;;;;;5035671;28;20374;-62
2022/04/28 07:34:53;;;;;;;6.53;2.20;;;17.20;44.00;;;;;;5049863;28;20065;-62
2022/04/28 07:37:44;;;;;;;6.00;2.40;;;17.20;43.80;;;;;;5056280;28;20100;-62
2022/04/28 07:40:29;;;;;;;10.10;3.20;;;17.40;43.70;;;;;;5052177;28;20581;-62
2022/04/28 07:42:58;;;;;;;10.15;3.45;;;17.50;43.40;;;;;;5053138;28;20029;-62
2022/04/28 07:45:24;;;;;;;7.53;2.90;;;17.50;43.10;;;;;;5051073;28;20040;-62
2022/04/28 07:47:51;;;;;;;8.15;2.58;;;17.60;42.90;;;;;;5053755;28;20446;-62
2022/04/28 07:50:24;;;;;;;7.32;2.33;;;17.70;42.70;;;;;;5038342;28;20056;-62
2022/04/28 07:52:54;;;;;;;9.57;2.75;;;17.70;42.50;;;;;;5054909;28;20027;-62
2022/04/28 07:55:20;;;;;;;7.90;2.58;;;17.80;42.50;;;;;;5053628;28;20033;-62
2022/04/28 07:57:49;;;;;;;10.35;2.35;;;17.80;42.30;;;;;;5050308;28;20377;-62
2022/04/28 08:00:23;;;;;;;7.68;2.47;;;17.90;42.30;;;;;;5056279;28;20040;-62
2022/04/28 08:02:53;;;;;;;7.72;2.50;;;18.00;42.10;;;;;;5041607;28;21075;-62
2022/04/28 08:05:23;;;;;;;8.68;2.75;;;18.10;41.80;;;;;;5040570;28;20025;-62
2022/04/28 08:07:48;;;;;;;8.93;2.95;;;18.20;41.70;;;;;;5049726;28;20136;-62
2022/04/28 08:10:14;;;;;;;9.63;2.70;;;18.30;41.60;;;;;;5052300;28;20378;-62
2022/04/28 08:12:41;;;;;;;6.68;2.63;;;18.40;41.40;;;;;;5042728;28;20029;-63
2022/04/28 08:15:25;;;;;;;6.35;2.40;;;18.50;41.30;;;;;;5047406;28;20044;-62
2022/04/28 08:17:50;;;;;;;8.25;2.65;;;18.50;41.40;;;;;;5045902;28;20362;-62
2022/04/28 08:20:16;;;;;;;12.30;3.17;;;18.60;41.80;;;;;;5034975;28;20064;-62
2022/04/28 08:22:43;;;;;;;10.65;2.85;;;18.70;41.10;;;;;;5033856;28;20525;-62
2022/04/28 08:25:09;;;;;;;6.82;2.88;;;18.80;41.00;;;;;;5034346;28;20082;-62
2022/04/28 08:27:35;;;;;;;9.30;2.92;;;18.90;40.90;;;;;;5034196;28;20120;-62
2022/04/28 08:30:02;;;;;;;9.57;3.10;;;19.00;40.90;;;;;;5034322;28;20030;-62
2022/04/28 08:32:28;;;;;;;8.57;2.60;;;19.20;40.70;;;;;;5034217;28;20029;-62
2022/04/28 08:34:54;;;;;;;6.60;2.35;;;19.30;40.60;;;;;;5043790;28;20426;-62
2022/04/28 08:37:19;;;;;;;6.32;2.50;;;19.40;40.50;;;;;;5053100;28;20096;-62
2022/04/28 08:39:45;;;;;;;6.30;2.80;;;19.50;40.30;;;;;;5052763;28;20487;-62
2022/04/28 08:42:13;;;;;;;9.55;3.00;;;19.60;40.10;;;;;;5054713;28;20335;-61
2022/04/28 08:45:16;;;;;;;8.90;2.67;;;19.60;39.90;;;;;;5052683;28;20095;-62
2022/04/28 08:48:02;;;;;;;11.07;2.88;;;19.50;39.70;;;;;;5053118;28;20155;-62
2022/04/28 08:50:48;;;;;;;6.75;2.55;;;19.50;39.80;;;;;;5050207;28;20401;-62
2022/04/28 08:53:14;;;;;;;7.53;3.08;;;19.50;39.80;;;;;;5036453;28;20037;-62
2022/04/28 08:55:42;;;;;;;7.43;2.85;;;19.60;39.70;;;;;;5051002;28;20151;-61
2022/04/28 08:58:09;;;;;;;8.43;2.83;;;19.60;39.60;;;;;;5036486;28;20032;-63
2022/04/28 09:00:39;;;;;;;7.65;2.80;;;19.60;39.50;;;;;;5040640;28;20033;-63
2022/04/28 09:03:43;;;;;;;8.55;2.63;;;19.70;39.50;;;;;;5033090;28;20366;-63
2022/04/28 09:06:48;;;;;;;5.75;2.40;;;19.70;39.50;;;;;;5050691;28;20574;-64
2022/04/28 09:09:33;;;;;;;7.38;2.60;;;19.90;39.50;;;;;;5053089;28;20059;-63
2022/04/28 09:12:21;;;;;;;8.65;2.70;;;19.90;39.10;;;;;;5051308;28;20032;-63
2022/04/28 09:15:12;;;;;;;9.23;2.85;;;19.80;38.90;;;;;;5045939;28;20044;-64
2022/04/28 09:17:42;;;;;;;8.52;2.95;;;19.80;39.00;;;;;;5035327;28;20474;-64
2022/04/28 09:20:16;;;;;;;8.00;3.20;;;19.80;38.90;;;;;;5047346;28;20034;-64
2022/04/28 09:22:44;;;;;;;8.60;2.80;;;19.80;38.80;;;;;;5058633;28;20022;-64
2022/04/28 09:25:14;;;;;;;10.65;3.05;;;19.70;38.80;;;;;;5034864;28;20026;-64
2022/04/28 09:27:41;;;;;;;7.15;2.45;;;19.70;38.80;;;;;;5040218;28;20350;-64
2022/04/28 09:30:11;;;;;;;6.85;2.42;;;19.90;38.70;;;;;;5053445;28;20028;-64
2022/04/28 09:32:41;;;;;;;7.47;2.70;;;20.00;38.50;;;;;;5046157;28;20513;-64
2022/04/28 09:35:09;;;;;;;6.78;2.65;;;20.10;38.40;;;;;;5050999;28;20137;-64
2022/04/28 09:37:51;;;;;;;6.60;2.60;;;20.20;38.20;;;;;;5045456;28;20030;-64
2022/04/28 09:43:03;;;;;;;8.40;2.50;;;20.40;38.10;;;;;;5051672;28;20029;-64
2022/04/28 09:45:37;;;;;;;7.05;2.45;;;20.50;38.10;;;;;;5032987;28;20048;-64
2022/04/28 09:48:05;;;;;;;7.25;2.45;;;20.60;38.00;;;;;;5039540;28;20041;-64
2022/04/28 09:50:39;;;;;;;8.20;2.95;;;20.80;38.00;;;;;;5038961;28;20033;-64
2022/04/28 09:53:23;;;;;;;7.05;3.03;;;20.80;37.60;;;;;;5054049;28;20102;-64
2022/04/28 09:56:16;;;;;;;6.45;2.55;;;20.70;37.60;;;;;;5063569;28;20415;-64
2022/04/28 09:58:46;;;;;;;8.05;2.58;;;20.90;37.80;;;;;;5044093;28;20366;-64
2022/04/28 10:01:13;;;;;;;8.05;3.13;;;21.00;37.70;;;;;;5038234;28;20104;-64
2022/04/28 10:03:40;;;;;;;8.70;3.38;;;21.20;37.30;;;;;;5045360;28;20366;-64
2022/04/28 10:06:09;;;;;;;8.70;3.25;;;21.20;37.00;;;;;;5057100;28;20119;-64
2022/04/28 10:08:46;;;;;;;15.25;9.18;;;21.10;36.80;;;;;;5045685;28;20358;-64
2022/04/28 10:11:17;;;;;;;36.58;32.65;;;21.10;36.90;;;;;;5049759;28;20044;-64
2022/04/28 10:13:45;;;;;;;19.65;15.32;;;21.10;36.70;;;;;;5041938;28;20075;-64
2022/04/28 10:16:13;;;;;;;16.92;11.13;;;21.10;36.60;;;;;;5056944;28;20044;-64
2022/04/28 10:18:58;;;;;;;16.17;9.23;;;21.10;36.50;;;;;;5046636;28;20071;-64
2022/04/28 10:21:33;;;;;;;11.57;5.25;;;21.20;36.50;;;;;;5037401;28;20029;-63
2022/04/28 10:33:15;;;;;;;6.95;3.33;;;21.50;36.40;;;;;;5036638;28;20421;-64
2022/04/28 10:35:49;;;;;;;8.38;2.90;;;21.50;36.30;;;;;;5074662;28;20048;-64
2022/04/28 10:38:21;;;;;;;7.38;2.70;;;21.40;36.30;;;;;;5074722;28;20040;-64
2022/04/28 10:41:09;;;;;;;11.15;3.67;;;21.40;36.40;;;;;;5076707;28;20028;-63
2022/04/28 10:43:43;;;;;;;7.47;2.95;;;21.40;36.20;;;;;;5073272;28;20039;-63
2022/04/28 10:46:08;;;;;;;7.95;3.00;;;21.40;36.30;;;;;;5074538;28;20044;-64
2022/04/28 10:48:38;;;;;;;6.75;2.92;;;21.40;36.10;;;;;;5072918;28;20055;-64
2022/04/28 10:51:25;;;;;;;9.68;3.22;;;21.40;36.00;;;;;;5077663;28;20106;-64
2022/04/28 10:54:11;;;;;;;8.07;2.78;;;21.40;35.70;;;;;;5081720;28;20460;-63
2022/04/28 10:56:39;;;;;;;6.97;2.95;;;21.50;35.90;;;;;;5068352;28;20044;-64
2022/04/28 10:59:37;;;;;;;8.45;2.92;;;21.60;35.80;;;;;;5069660;28;20033;-64
2022/04/28 11:02:13;;;;;;;8.88;3.25;;;21.60;35.60;;;;;;5075500;28;20035;-64
2022/04/28 11:04:41;;;;;;;7.80;2.78;;;21.60;35.80;;;;;;5073060;28;20070;-63
2022/04/28 11:07:09;;;;;;;8.85;3.38;;;21.60;35.70;;;;;;5044431;28;20045;-64
2022/04/28 11:09:38;;;;;;;7.80;3.55;;;21.60;35.60;;;;;;5046011;28;20845;-64
2022/04/28 11:12:12;;;;;;;8.98;3.45;;;21.50;35.60;;;;;;5056709;28;20056;-64
2022/04/28 11:14:48;;;;;;;8.45;3.35;;;21.50;35.50;;;;;;5040208;28;20037;-64
2022/04/28 11:17:18;;;;;;;7.68;2.92;;;21.30;35.50;;;;;;5044183;28;20029;-61
2022/04/28 11:19:45;;;;;;;8.57;2.95;;;21.30;35.90;;;;;;5060930;28;20414;-64
2022/04/28 11:22:11;;;;;;;6.60;2.72;;;21.30;36.00;;;;;;5059591;28;20024;-63
2022/04/28 11:24:41;;;;;;;6.97;3.13;;;21.40;36.00;;;;;;5059976;28;20151;-62
2022/04/28 11:27:18;;;;;;;6.25;2.90;;;21.50;36.00;;;;;;5040212;28;20036;-62
2022/04/28 11:29:51;;;;;;;7.65;3.00;;;21.60;35.90;;;;;;5036349;28;20352;-62
2022/04/28 11:32:18;;;;;;;8.30;2.75;;;21.60;35.90;;;;;;5045718;28;20485;-63
2022/04/28 11:34:45;;;;;;;8.93;3.20;;;21.60;35.90;;;;;;5036478;28;20390;-63
2022/04/28 11:37:22;;;;;;;6.88;2.80;;;21.60;35.90;;;;;;5035897;28;20030;-62
2022/04/28 11:39:58;;;;;;;8.15;3.08;;;21.60;35.90;;;;;;5051579;28;20379;-62
2022/04/28 11:42:26;;;;;;;6.95;2.90;;;21.70;36.00;;;;;;5053050;28;20029;-62
2022/04/28 11:44:56;;;;;;;7.22;3.38;;;21.70;36.00;;;;;;5052230;28;20048;-63
2022/04/28 11:47:24;;;;;;;6.63;2.80;;;21.70;35.70;;;;;;5052068;28;20033;-64
2022/04/28 11:50:01;;;;;;;8.68;2.97;;;21.60;35.80;;;;;;5052537;28;20040;-64
2022/04/28 11:52:31;;;;;;;7.18;2.72;;;21.50;35.60;;;;;;5051452;28;20039;-64
2022/04/28 11:54:58;;;;;;;6.72;3.00;;;21.50;35.90;;;;;;5055510;28;20130;-64
2022/04/28 11:57:24;;;;;;;7.47;3.20;;;21.40;36.00;;;;;;5055649;28;20480;-64
2022/04/28 11:59:51;;;;;;;6.15;2.83;;;21.40;36.20;;;;;;5055665;28;20102;-65
2022/04/28 12:02:28;;;;;;;8.57;3.13;;;21.40;36.30;;;;;;5055694;28;20016;-65
2022/04/28 12:04:56;;;;;;;7.10;2.75;;;21.40;37.00;;;;;;5055743;28;20017;-64
2022/04/28 12:07:30;;;;;;;7.15;3.20;;;21.40;36.50;;;;;;5055622;28;20112;-63
2022/04/28 12:15:27;;;;;;;6.15;2.75;;;21.20;36.50;;;;;;5055809;28;20037;-63
2022/04/28 12:21:12;;;;;;;8.10;2.88;;;21.20;36.90;;;;;;5055724;28;20051;-63
2022/04/28 12:23:41;;;;;;;6.85;3.17;;;21.00;36.90;;;;;;5055672;28;20086;-63
2022/04/28 12:26:09;;;;;;;7.78;3.03;;;20.90;36.90;;;;;;5054784;28;20029;-63
2022/04/28 12:28:40;;;;;;;7.70;2.97;;;20.90;37.00;;;;;;5054216;28;20033;-63
2022/04/28 12:31:14;;;;;;;6.05;2.63;;;20.80;37.00;;;;;;5153987;27;20439;-63
2022/04/28 12:33:41;;;;;;;7.68;3.08;;;20.80;36.90;;;;;;5144688;27;20027;-64
2022/04/28 12:36:13;;;;;;;7.25;2.45;;;20.70;36.90;;;;;;5142103;27;20387;-63
2022/04/28 12:38:46;;;;;;;6.90;2.97;;;20.60;36.70;;;;;;5151755;27;20027;-64
2022/04/28 12:41:22;;;;;;;7.60;3.03;;;20.60;36.90;;;;;;5151340;27;20023;-63
2022/04/28 12:43:52;;;;;;;7.38;3.05;;;20.60;37.20;;;;;;5149623;27;20033;-63
2022/04/28 12:46:34;;;;;;;6.50;2.88;;;20.50;37.30;;;;;;5130714;27;20022;-64
2022/04/28 12:49:03;;;;;;;5.82;2.47;;;20.40;37.30;;;;;;5155785;27;20023;-64
2022/04/28 12:51:50;;;;;;;8.27;3.42;;;20.40;37.40;;;;;;5160346;27;20098;-64
2022/04/28 12:54:16;;;;;;;6.57;2.72;;;20.30;37.30;;;;;;5149636;27;20020;-64
2022/04/28 12:56:44;;;;;;;6.80;2.70;;;20.30;37.50;;;;;;5145112;27;20365;-64
2022/04/28 12:59:13;;;;;;;6.57;2.90;;;20.30;37.70;;;;;;5150927;27;20059;-64
2022/04/28 13:01:39;;;;;;;8.80;3.47;;;20.30;37.70;;;;;;5124875;27;20118;-65
2022/04/28 13:04:13;;;;;;;6.18;3.25;;;20.20;37.70;;;;;;5141927;27;20405;-64
2022/04/28 13:06:42;;;;;;;8.60;3.53;;;20.10;37.50;;;;;;5137685;27;20424;-64
2022/04/28 13:09:08;;;;;;;7.13;3.05;;;20.00;37.70;;;;;;5152352;27;20359;-64
2022/04/28 13:11:39;;;;;;;5.63;2.88;;;19.90;37.60;;;;;;5117589;27;20110;-64
2022/04/28 13:14:06;;;;;;;7.45;3.10;;;19.80;37.60;;;;;;5153069;27;20034;-64
2022/04/28 13:16:32;;;;;;;7.40;3.08;;;19.70;37.60;;;;;;5153191;27;20044;-64
2022/04/28 13:18:58;;;;;;;7.57;2.90;;;19.60;37.70;;;;;;5153007;27;20016;-64
2022/04/28 13:21:25;;;;;;;8.30;3.40;;;19.50;37.70;;;;;;5134932;27;20023;-63
2022/04/28 13:23:52;;;;;;;7.53;2.90;;;19.50;37.90;;;;;;5152466;27;20031;-63
2022/04/28 13:26:20;;;;;;;7.30;3.05;;;19.50;38.20;;;;;;5152666;27;20466;-63
2022/04/28 13:28:48;;;;;;;7.10;3.13;;;19.40;38.30;;;;;;5152722;27;20034;-65
2022/04/28 13:31:14;;;;;;;7.57;3.50;;;19.40;38.40;;;;;;5153001;27;20051;-64
2022/04/28 13:33:40;;;;;;;7.65;3.35;;;19.40;38.50;;;;;;5152779;27;20027;-63
2022/04/28 13:36:07;;;;;;;8.40;3.47;;;19.30;38.50;;;;;;5127503;27;20160;-63
2022/04/28 13:38:34;;;;;;;9.05;3.63;;;19.30;38.70;;;;;;5146675;27;20348;-61